sensor_id;sensor_type;location;lat;lon;timestamp;pressure;altitude;pressure_sealevel;temperature;humidity
52469;BME280;38381;53.688;10.776;2022-07-15T00:02:29;101443.84;;;12.96;73.41
52469;BME280;38381;53.688;10.776;2022-07-15T00:07:29;101449.88;;;12.94;73.62
52469;BME280;38381;53.688;10.776;2022-07-15T00:12:30;101464.72;;;13.05;74.12
52469;BME280;38381;53.688;10.776;2022-07-15T00:17:30;101451.69;;;13.05;74.68
52469;BME280;38381;53.688;10.776;2022-07-15T00:22:30;101444.81;;;13.11;74.75
52469;BME280;38381;53.688;10.776;2022-07-15T00:27:31;101439.59;;;13.14;74.39
52469;BME280;38381;53.688;10.776;2022-07-15T00:32:31;101436.97;;;13.07;74.56
52469;BME280;38381;53.688;10.776;2022-07-15T00:37:32;101438.75;;;13.18;73.97
52469;BME280;38381;53.688;10.776;2022-07-15T00:42:33;101430.06;;;13.13;73.64
52469;BME280;38381;53.688;10.776;2022-07-15T00:47:53;101427.38;;;13.02;73.71
52469;BME280;38381;53.688;10.776;2022-07-15T00:52:54;101431.75;;;13.07;73.65
52469;BME280;38381;53.688;10.776;2022-07-15T00:58:00;101427.41;;;13.09;73.72
52469;BME280;38381;53.688;10.776;2022-07-15T01:03:02;101443.09;;;13.13;73.88
52469;BME280;38381;53.688;10.776;2022-07-15T01:08:02;101434.34;;;13.06;74.03
52469;BME280;38381;53.688;10.776;2022-07-15T01:13:04;101435.22;;;13.08;74.15
52469;BME280;38381;53.688;10.776;2022-07-15T01:18:04;101431.75;;;13.07;73.91
52469;BME280;38381;53.688;10.776;2022-07-15T01:23:05;101430.88;;;13.05;74.12
52469;BME280;38381;53.688;10.776;2022-07-15T01:28:07;101431.69;;;12.97;74.03
52469;BME280;38381;53.688;10.776;2022-07-15T01:33:08;101435.09;;;12.91;74.26
52469;BME280;38381;53.688;10.776;2022-07-15T01:38:08;101429.03;;;12.91;74.34
52469;BME280;38381;53.688;10.776;2022-07-15T01:43:09;101437.66;;;12.85;74.50
52469;BME280;38381;53.688;10.776;2022-07-15T01:48:10;101441.97;;;12.80;74.29
52469;BME280;38381;53.688;10.776;2022-07-15T01:53:31;101450.56;;;12.73;74.61
52469;BME280;38381;53.688;10.776;2022-07-15T01:58:31;101448.91;;;12.78;74.25
52469;BME280;38381;53.688;10.776;2022-07-15T02:03:31;101459.25;;;12.72;74.66
52469;BME280;38381;53.688;10.776;2022-07-15T02:08:31;101451.44;;;12.70;74.67
52469;BME280;38381;53.688;10.776;2022-07-15T02:13:32;101456.69;;;12.78;74.42
52469;BME280;38381;53.688;10.776;2022-07-15T02:18:32;101454.88;;;12.71;75.15
52469;BME280;38381;53.688;10.776;2022-07-15T02:23:33;101454.88;;;12.71;75.48
52469;BME280;38381;53.688;10.776;2022-07-15T02:28:34;101450.59;;;12.77;75.23
52469;BME280;38381;53.688;10.776;2022-07-15T02:33:34;101437.56;;;12.74;75.33
52469;BME280;38381;53.688;10.776;2022-07-15T02:38:35;101451.56;;;12.84;75.42
52469;BME280;38381;53.688;10.776;2022-07-15T02:43:35;101453.25;;;12.83;75.66
52469;BME280;38381;53.688;10.776;2022-07-15T02:48:37;101456.75;;;12.84;75.06
52469;BME280;38381;53.688;10.776;2022-07-15T02:53:37;101455.91;;;12.88;74.30
52469;BME280;38381;53.688;10.776;2022-07-15T02:58:39;101455.81;;;12.79;74.80
52469;BME280;38381;53.688;10.776;2022-07-15T03:03:39;101458.44;;;12.80;74.97
52469;BME280;38381;53.688;10.776;2022-07-15T03:08:39;101461.91;;;12.79;75.11
52469;BME280;38381;53.688;10.776;2022-07-15T03:13:40;101461.94;;;12.85;75.11
52469;BME280;38381;53.688;10.776;2022-07-15T03:18:40;101464.56;;;12.85;75.08
52469;BME280;38381;53.688;10.776;2022-07-15T03:23:40;101455.94;;;12.91;75.32
52469;BME280;38381;53.688;10.776;2022-07-15T03:28:40;101463.81;;;13.00;74.93
52469;BME280;38381;53.688;10.776;2022-07-15T03:33:41;101466.38;;;12.94;75.28
52469;BME280;38381;53.688;10.776;2022-07-15T03:38:41;101472.41;;;12.92;75.30
52469;BME280;38381;53.688;10.776;2022-07-15T03:43:41;101472.47;;;12.98;75.27
52469;BME280;38381;53.688;10.776;2022-07-15T03:48:42;101474.25;;;13.00;74.82
52469;BME280;38381;53.688;10.776;2022-07-15T03:53:42;101476.84;;;13.03;74.79
52469;BME280;38381;53.688;10.776;2022-07-15T03:58:43;101482.09;;;13.06;74.69
52469;BME280;38381;53.688;10.776;2022-07-15T04:03:44;101489.16;;;13.21;74.08
52469;BME280;38381;53.688;10.776;2022-07-15T04:08:45;101483.09;;;13.24;73.90
52469;BME280;38381;53.688;10.776;2022-07-15T04:13:46;101489.25;;;13.32;73.47
52469;BME280;38381;53.688;10.776;2022-07-15T04:18:47;101495.31;;;13.33;73.45
52469;BME280;38381;53.688;10.776;2022-07-15T04:23:47;101490.22;;;13.48;72.27
52469;BME280;38381;53.688;10.776;2022-07-15T04:28:47;101501.53;;;13.50;72.61
52469;BME280;38381;53.688;10.776;2022-07-15T04:33:48;101504.16;;;13.50;72.52
52469;BME280;38381;53.688;10.776;2022-07-15T04:38:48;101499.81;;;13.55;72.33
52469;BME280;38381;53.688;10.776;2022-07-15T04:43:48;101505.06;;;13.60;72.36
52469;BME280;38381;53.688;10.776;2022-07-15T04:48:49;101504.28;;;13.70;72.31
52469;BME280;38381;53.688;10.776;2022-07-15T04:54:08;101512.94;;;13.71;72.29
52469;BME280;38381;53.688;10.776;2022-07-15T04:59:08;101507.75;;;13.74;72.51
52469;BME280;38381;53.688;10.776;2022-07-15T05:04:08;101510.41;;;13.78;72.56
52469;BME280;38381;53.688;10.776;2022-07-15T05:09:09;101512.13;;;13.79;72.95
52469;BME280;38381;53.688;10.776;2022-07-15T05:14:09;101513.97;;;14.02;72.94
52469;BME280;38381;53.688;10.776;2022-07-15T05:19:10;101517.47;;;14.05;72.14
52469;BME280;38381;53.688;10.776;2022-07-15T05:24:10;101527.94;;;14.13;72.23
52469;BME280;38381;53.688;10.776;2022-07-15T05:29:11;101529.69;;;14.25;71.97
52469;BME280;38381;53.688;10.776;2022-07-15T05:34:11;101530.59;;;14.30;71.69
52469;BME280;38381;53.688;10.776;2022-07-15T05:39:11;101539.31;;;14.32;71.26
52469;BME280;38381;53.688;10.776;2022-07-15T05:44:12;101538.50;;;14.50;70.37
52469;BME280;38381;53.688;10.776;2022-07-15T05:49:12;101547.19;;;14.54;69.71
52469;BME280;38381;53.688;10.776;2022-07-15T05:54:12;101545.53;;;14.65;69.33
52469;BME280;38381;53.688;10.776;2022-07-15T05:59:15;101551.59;;;14.59;69.03
52469;BME280;38381;53.688;10.776;2022-07-15T06:04:16;101556.91;;;15.10;67.49
52469;BME280;38381;53.688;10.776;2022-07-15T06:09:16;101563.00;;;15.20;65.95
52469;BME280;38381;53.688;10.776;2022-07-15T06:14:16;101551.69;;;15.05;65.47
52469;BME280;38381;53.688;10.776;2022-07-15T06:19:16;101560.41;;;15.32;64.91
52469;BME280;38381;53.688;10.776;2022-07-15T06:24:17;101566.47;;;15.56;65.12
52469;BME280;38381;53.688;10.776;2022-07-15T06:29:17;101575.16;;;15.70;64.46
52469;BME280;38381;53.688;10.776;2022-07-15T06:34:18;101571.63;;;15.97;63.55
52469;BME280;38381;53.688;10.776;2022-07-15T06:39:18;101575.97;;;16.11;63.43
52469;BME280;38381;53.688;10.776;2022-07-15T06:44:20;101573.34;;;16.07;62.64
52469;BME280;38381;53.688;10.776;2022-07-15T06:49:20;101571.69;;;15.77;63.30
52469;BME280;38381;53.688;10.776;2022-07-15T06:54:21;101569.91;;;15.98;62.90
52469;BME280;38381;53.688;10.776;2022-07-15T06:59:21;101584.72;;;15.91;61.97
52469;BME280;38381;53.688;10.776;2022-07-15T07:04:22;101583.88;;;15.92;60.92
52469;BME280;38381;53.688;10.776;2022-07-15T07:09:22;101586.50;;;15.86;60.54
52469;BME280;38381;53.688;10.776;2022-07-15T07:14:22;101583.84;;;16.06;60.84
52469;BME280;38381;53.688;10.776;2022-07-15T07:19:23;101583.81;;;16.12;59.60
52469;BME280;38381;53.688;10.776;2022-07-15T07:24:23;101586.31;;;16.38;58.99
52469;BME280;38381;53.688;10.776;2022-07-15T07:29:23;101586.25;;;16.50;58.00
52469;BME280;38381;53.688;10.776;2022-07-15T07:34:24;101584.63;;;16.31;57.11
52469;BME280;38381;53.688;10.776;2022-07-15T07:39:24;101586.25;;;16.52;57.25
52469;BME280;38381;53.688;10.776;2022-07-15T07:44:24;101580.13;;;16.56;56.91
52469;BME280;38381;53.688;10.776;2022-07-15T07:49:24;101581.06;;;16.41;56.18
52469;BME280;38381;53.688;10.776;2022-07-15T07:54:25;101578.25;;;16.83;56.51
52469;BME280;38381;53.688;10.776;2022-07-15T07:59:25;101578.25;;;16.78;56.91
52469;BME280;38381;53.688;10.776;2022-07-15T08:04:26;101576.59;;;16.63;55.84
52469;BME280;38381;53.688;10.776;2022-07-15T08:09:26;101564.97;;;17.07;54.99
52469;BME280;38381;53.688;10.776;2022-07-15T08:14:27;101577.84;;;17.41;54.14
52469;BME280;38381;53.688;10.776;2022-07-15T08:19:28;101567.41;;;17.32;53.23
52469;BME280;38381;53.688;10.776;2022-07-15T08:24:29;101575.38;;;17.21;53.29
52469;BME280;38381;53.688;10.776;2022-07-15T08:29:29;101572.84;;;17.06;54.35
52469;BME280;38381;53.688;10.776;2022-07-15T08:34:29;101583.31;;;17.11;55.09
52469;BME280;38381;53.688;10.776;2022-07-15T08:39:29;101588.44;;;17.27;54.90
52469;BME280;38381;53.688;10.776;2022-07-15T08:44:30;101601.75;;;16.94;55.22
52469;BME280;38381;53.688;10.776;2022-07-15T08:49:32;101592.25;;;16.76;55.81
52469;BME280;38381;53.688;10.776;2022-07-15T08:54:33;101602.72;;;16.76;55.70
52469;BME280;38381;53.688;10.776;2022-07-15T08:59:34;101606.28;;;16.64;57.23
52469;BME280;38381;53.688;10.776;2022-07-15T09:10:05;101600.81;;;17.05;57.10
52469;BME280;38381;53.688;10.776;2022-07-15T09:15:06;101596.19;;;17.37;55.36
52469;BME280;38381;53.688;10.776;2022-07-15T09:20:09;101602.22;;;17.49;54.04
52469;BME280;38381;53.688;10.776;2022-07-15T09:25:10;101600.53;;;17.45;53.01
52469;BME280;38381;53.688;10.776;2022-07-15T09:30:12;101594.84;;;17.95;53.12
52469;BME280;38381;53.688;10.776;2022-07-15T09:35:32;101581.78;;;17.87;51.95
52469;BME280;38381;53.688;10.776;2022-07-15T09:40:51;101596.63;;;17.89;53.52
52469;BME280;38381;53.688;10.776;2022-07-15T09:46:00;101594.78;;;17.99;53.38
52469;BME280;38381;53.688;10.776;2022-07-15T09:51:01;101603.50;;;17.98;53.81
52469;BME280;38381;53.688;10.776;2022-07-15T09:56:03;101598.53;;;17.70;54.82
52469;BME280;38381;53.688;10.776;2022-07-15T10:01:06;101620.38;;;17.73;54.93
52469;BME280;38381;53.688;10.776;2022-07-15T10:06:07;101620.44;;;17.63;55.78
52469;BME280;38381;53.688;10.776;2022-07-15T10:11:09;101622.16;;;17.70;55.75
52469;BME280;38381;53.688;10.776;2022-07-15T10:16:53;101615.78;;;17.96;57.17
52469;BME280;38381;53.688;10.776;2022-07-15T10:22:27;101605.88;;;18.23;56.90
52469;BME280;38381;53.688;10.776;2022-07-15T10:38:28;101593.72;;;18.84;51.93
52469;BME280;38381;53.688;10.776;2022-07-15T10:48:42;101587.53;;;18.86;52.13
52469;BME280;38381;53.688;10.776;2022-07-15T10:53:44;101586.56;;;18.95;52.23
52469;BME280;38381;53.688;10.776;2022-07-15T10:59:13;101585.84;;;18.84;52.03
52469;BME280;38381;53.688;10.776;2022-07-15T11:04:20;101595.88;;;18.53;52.91
52469;BME280;38381;53.688;10.776;2022-07-15T11:14:55;101618.75;;;18.43;52.30
52469;BME280;38381;53.688;10.776;2022-07-15T11:20:04;101604.91;;;18.32;51.55
52469;BME280;38381;53.688;10.776;2022-07-15T11:25:19;101595.88;;;18.54;51.17
52469;BME280;38381;53.688;10.776;2022-07-15T11:30:20;101593.94;;;18.65;51.79
52469;BME280;38381;53.688;10.776;2022-07-15T11:35:20;101598.94;;;18.87;51.72
52469;BME280;38381;53.688;10.776;2022-07-15T11:40:21;101593.22;;;19.18;50.93
52469;BME280;38381;53.688;10.776;2022-07-15T11:45:40;101596.38;;;19.38;50.30
52469;BME280;38381;53.688;10.776;2022-07-15T11:50:53;101586.03;;;19.27;50.79
52469;BME280;38381;53.688;10.776;2022-07-15T11:55:56;101594.75;;;19.29;49.67
52469;BME280;38381;53.688;10.776;2022-07-15T12:01:00;101580.75;;;19.27;49.99
52469;BME280;38381;53.688;10.776;2022-07-15T12:06:01;101585.34;;;19.16;51.52
52469;BME280;38381;53.688;10.776;2022-07-15T12:11:02;101582.66;;;19.19;50.78
52469;BME280;38381;53.688;10.776;2022-07-15T12:16:08;101586.31;;;19.09;51.33
52469;BME280;38381;53.688;10.776;2022-07-15T12:21:09;101582.59;;;19.24;51.31
52469;BME280;38381;53.688;10.776;2022-07-15T12:26:10;101580.44;;;19.47;49.89
52469;BME280;38381;53.688;10.776;2022-07-15T12:31:10;101574.53;;;19.35;49.92
52469;BME280;38381;53.688;10.776;2022-07-15T12:41:24;101582.13;;;19.52;50.90
52469;BME280;38381;53.688;10.776;2022-07-15T12:51:48;101572.00;;;19.80;50.20
52469;BME280;38381;53.688;10.776;2022-07-15T12:56:52;101571.69;;;19.95;49.04
52469;BME280;38381;53.688;10.776;2022-07-15T13:02:03;101578.00;;;19.86;48.28
52469;BME280;38381;53.688;10.776;2022-07-15T13:07:03;101567.31;;;19.96;47.67
52469;BME280;38381;53.688;10.776;2022-07-15T13:12:04;101563.50;;;20.09;47.63
52469;BME280;38381;53.688;10.776;2022-07-15T13:17:05;101562.50;;;20.57;46.83
52469;BME280;38381;53.688;10.776;2022-07-15T13:22:05;101566.03;;;20.56;46.17
52469;BME280;38381;53.688;10.776;2022-07-15T13:27:06;101552.78;;;20.60;46.90
52469;BME280;38381;53.688;10.776;2022-07-15T13:32:06;101554.59;;;20.58;46.27
52469;BME280;38381;53.688;10.776;2022-07-15T13:37:07;101560.31;;;20.37;46.22
52469;BME280;38381;53.688;10.776;2022-07-15T13:42:08;101558.44;;;20.00;46.68
52469;BME280;38381;53.688;10.776;2022-07-15T13:47:08;101553.00;;;20.07;47.09
52469;BME280;38381;53.688;10.776;2022-07-15T13:52:09;101547.59;;;20.15;48.73
52469;BME280;38381;53.688;10.776;2022-07-15T13:57:09;101547.59;;;20.15;49.35
52469;BME280;38381;53.688;10.776;2022-07-15T14:02:09;101555.25;;;20.26;50.19
52469;BME280;38381;53.688;10.776;2022-07-15T14:07:10;101563.78;;;20.39;49.23
52469;BME280;38381;53.688;10.776;2022-07-15T14:12:10;101559.00;;;20.56;47.79
52469;BME280;38381;53.688;10.776;2022-07-15T14:17:11;101558.47;;;20.81;46.74
52469;BME280;38381;53.688;10.776;2022-07-15T14:22:11;101550.34;;;20.90;46.81
52469;BME280;38381;53.688;10.776;2022-07-15T14:27:11;101554.84;;;20.85;47.55
52469;BME280;38381;53.688;10.776;2022-07-15T14:32:12;101554.56;;;20.60;48.41
52469;BME280;38381;53.688;10.776;2022-07-15T14:37:12;101563.34;;;20.59;46.96
52469;BME280;38381;53.688;10.776;2022-07-15T14:42:13;101555.13;;;20.32;48.11
52469;BME280;38381;53.688;10.776;2022-07-15T14:47:13;101565.25;;;20.50;48.33
52469;BME280;38381;53.688;10.776;2022-07-15T14:52:15;101559.09;;;20.11;48.37
52469;BME280;38381;53.688;10.776;2022-07-15T14:57:15;101570.41;;;20.16;47.94
52469;BME280;38381;53.688;10.776;2022-07-15T15:02:16;101559.91;;;20.13;48.64
52469;BME280;38381;53.688;10.776;2022-07-15T15:07:17;101571.19;;;20.20;47.55
52469;BME280;38381;53.688;10.776;2022-07-15T15:12:17;101572.63;;;19.91;47.77
52469;BME280;38381;53.688;10.776;2022-07-15T15:17:17;101570.81;;;19.95;47.91
52469;BME280;38381;53.688;10.776;2022-07-15T15:22:18;101579.75;;;19.87;47.53
52469;BME280;38381;53.688;10.776;2022-07-15T15:27:18;101574.06;;;19.61;47.70
52469;BME280;38381;53.688;10.776;2022-07-15T15:32:19;101565.78;;;19.82;48.01
52469;BME280;38381;53.688;10.776;2022-07-15T15:37:19;101570.81;;;19.96;47.90
52469;BME280;38381;53.688;10.776;2022-07-15T15:42:19;101588.41;;;19.94;48.22
52469;BME280;38381;53.688;10.776;2022-07-15T15:47:20;101583.25;;;19.86;47.62
52469;BME280;38381;53.688;10.776;2022-07-15T15:52:20;101589.38;;;19.87;46.74
52469;BME280;38381;53.688;10.776;2022-07-15T15:57:20;101592.53;;;19.58;45.90
52469;BME280;38381;53.688;10.776;2022-07-15T16:02:21;101590.81;;;19.57;44.55
52469;BME280;38381;53.688;10.776;2022-07-15T16:07:21;101573.03;;;19.71;44.94
52469;BME280;38381;53.688;10.776;2022-07-15T16:12:21;101570.13;;;19.85;44.31
52469;BME280;38381;53.688;10.776;2022-07-15T16:17:21;101575.97;;;20.01;44.21
52469;BME280;38381;53.688;10.776;2022-07-15T16:22:22;101571.06;;;19.82;43.99
52469;BME280;38381;53.688;10.776;2022-07-15T16:27:41;101562.94;;;19.93;44.00
52469;BME280;38381;53.688;10.776;2022-07-15T16:32:41;101552.81;;;19.73;44.71
52469;BME280;38381;53.688;10.776;2022-07-15T16:37:41;101565.16;;;19.68;44.73
52469;BME280;38381;53.688;10.776;2022-07-15T16:42:43;101559.81;;;19.73;44.72
52469;BME280;38381;53.688;10.776;2022-07-15T16:47:43;101562.44;;;19.74;44.27
52469;BME280;38381;53.688;10.776;2022-07-15T16:52:45;101558.09;;;19.72;44.13
52469;BME280;38381;53.688;10.776;2022-07-15T16:57:46;101546.91;;;19.59;44.31
52469;BME280;38381;53.688;10.776;2022-07-15T17:02:46;101552.09;;;19.63;44.99
52469;BME280;38381;53.688;10.776;2022-07-15T17:07:47;101546.91;;;19.59;45.41
52469;BME280;38381;53.688;10.776;2022-07-15T17:12:47;101551.56;;;19.44;45.55
52469;BME280;38381;53.688;10.776;2022-07-15T17:17:48;101556.03;;;19.39;45.79
52469;BME280;38381;53.688;10.776;2022-07-15T17:22:48;101560.63;;;19.26;45.99
52469;BME280;38381;53.688;10.776;2022-07-15T17:27:48;101557.38;;;19.10;46.40
52469;BME280;38381;53.688;10.776;2022-07-15T17:32:50;101562.81;;;19.01;47.02
52469;BME280;38381;53.688;10.776;2022-07-15T17:37:50;101561.22;;;18.91;46.73
52469;BME280;38381;53.688;10.776;2022-07-15T17:42:51;101568.19;;;18.92;47.32
52469;BME280;38381;53.688;10.776;2022-07-15T17:47:51;101566.66;;;18.79;47.95
52469;BME280;38381;53.688;10.776;2022-07-15T17:52:51;101572.00;;;18.69;48.01
52469;BME280;38381;53.688;10.776;2022-07-15T17:57:52;101571.28;;;18.58;48.45
52469;BME280;38381;53.688;10.776;2022-07-15T18:02:52;101569.53;;;18.59;48.65
52469;BME280;38381;53.688;10.776;2022-07-15T18:07:52;101566.13;;;18.50;49.84
52469;BME280;38381;53.688;10.776;2022-07-15T18:12:53;101577.63;;;18.42;50.30
52469;BME280;38381;53.688;10.776;2022-07-15T18:17:54;101570.69;;;18.36;51.02
52469;BME280;38381;53.688;10.776;2022-07-15T18:22:54;101567.25;;;18.31;51.46
52469;BME280;38381;53.688;10.776;2022-07-15T18:27:54;101566.59;;;18.14;51.76
52469;BME280;38381;53.688;10.776;2022-07-15T18:32:55;101568.38;;;18.13;52.03
52469;BME280;38381;53.688;10.776;2022-07-15T18:37:55;101560.66;;;17.99;52.39
52469;BME280;38381;53.688;10.776;2022-07-15T18:42:55;101557.97;;;18.04;52.68
52469;BME280;38381;53.688;10.776;2022-07-15T18:47:56;101555.47;;;17.93;52.87
52469;BME280;38381;53.688;10.776;2022-07-15T18:52:56;101548.47;;;17.92;52.41
52469;BME280;38381;53.688;10.776;2022-07-15T18:57:56;101550.22;;;17.95;52.82
52469;BME280;38381;53.688;10.776;2022-07-15T19:02:57;101556.41;;;17.89;52.68
52469;BME280;38381;53.688;10.776;2022-07-15T19:07:57;101550.41;;;17.72;53.26
52469;BME280;38381;53.688;10.776;2022-07-15T19:12:57;101542.72;;;17.56;53.55
52469;BME280;38381;53.688;10.776;2022-07-15T19:17:58;101544.50;;;17.53;53.85
52469;BME280;38381;53.688;10.776;2022-07-15T19:22:58;101530.63;;;17.41;53.98
52469;BME280;38381;53.688;10.776;2022-07-15T19:27:58;101531.59;;;17.28;53.98
52469;BME280;38381;53.688;10.776;2022-07-15T19:33:00;101537.81;;;17.21;54.11
52469;BME280;38381;53.688;10.776;2022-07-15T19:38:01;101536.97;;;17.14;54.57
52469;BME280;38381;53.688;10.776;2022-07-15T19:43:02;101546.63;;;17.07;54.77
52469;BME280;38381;53.688;10.776;2022-07-15T19:48:02;101540.59;;;17.01;55.03
52469;BME280;38381;53.688;10.776;2022-07-15T19:53:03;101541.44;;;17.01;54.84
52469;BME280;38381;53.688;10.776;2022-07-15T19:58:03;101538.81;;;17.00;54.99
52469;BME280;38381;53.688;10.776;2022-07-15T20:03:05;101537.25;;;16.82;55.51
52469;BME280;38381;53.688;10.776;2022-07-15T20:08:05;101532.00;;;16.76;55.90
52469;BME280;38381;53.688;10.776;2022-07-15T20:13:07;101533.81;;;16.67;56.54
52469;BME280;38381;53.688;10.776;2022-07-15T20:18:08;101531.25;;;16.55;56.67
52469;BME280;38381;53.688;10.776;2022-07-15T20:23:09;101532.09;;;16.59;57.15
52469;BME280;38381;53.688;10.776;2022-07-15T20:28:10;101527.72;;;16.61;57.30
52469;BME280;38381;53.688;10.776;2022-07-15T20:33:10;101533.88;;;16.52;57.22
52469;BME280;38381;53.688;10.776;2022-07-15T20:38:11;101524.31;;;16.51;57.45
52469;BME280;38381;53.688;10.776;2022-07-15T20:43:11;101514.72;;;16.45;57.96
52469;BME280;38381;53.688;10.776;2022-07-15T20:48:11;101513.00;;;16.41;58.34
52469;BME280;38381;53.688;10.776;2022-07-15T20:53:12;101511.28;;;16.37;58.20
52469;BME280;38381;53.688;10.776;2022-07-15T20:58:12;101512.16;;;16.38;58.56
52469;BME280;38381;53.688;10.776;2022-07-15T21:03:13;101504.41;;;16.22;58.43
52469;BME280;38381;53.688;10.776;2022-07-15T21:08:13;101507.88;;;16.20;58.90
52469;BME280;38381;53.688;10.776;2022-07-15T21:13:14;101497.41;;;16.21;58.58
52469;BME280;38381;53.688;10.776;2022-07-15T21:18:14;101489.59;;;16.15;58.66
52469;BME280;38381;53.688;10.776;2022-07-15T21:23:14;101487.03;;;16.04;58.70
52469;BME280;38381;53.688;10.776;2022-07-15T21:28:15;101481.78;;;16.03;58.62
52469;BME280;38381;53.688;10.776;2022-07-15T21:33:15;101484.44;;;16.00;58.31
52469;BME280;38381;53.688;10.776;2022-07-15T21:38:16;101486.25;;;15.85;58.87
52469;BME280;38381;53.688;10.776;2022-07-15T21:43:16;101479.28;;;15.77;59.09
52469;BME280;38381;53.688;10.776;2022-07-15T21:48:16;101479.28;;;15.72;59.42
52469;BME280;38381;53.688;10.776;2022-07-15T21:53:16;101475.78;;;15.62;59.51
52469;BME280;38381;53.688;10.776;2022-07-15T21:58:17;101488.06;;;15.53;59.62
52469;BME280;38381;53.688;10.776;2022-07-15T22:03:18;101474.97;;;15.42;60.16
52469;BME280;38381;53.688;10.776;2022-07-15T22:08:19;101468.88;;;15.47;60.70
52469;BME280;38381;53.688;10.776;2022-07-15T22:13:19;101461.94;;;15.31;62.06
52469;BME280;38381;53.688;10.776;2022-07-15T22:18:19;101464.53;;;15.42;63.09
52469;BME280;38381;53.688;10.776;2022-07-15T22:23:20;101455.84;;;15.31;63.62
52469;BME280;38381;53.688;10.776;2022-07-15T22:28:20;101461.06;;;15.35;64.38
52469;BME280;38381;53.688;10.776;2022-07-15T22:33:22;101461.06;;;15.21;66.24
52469;BME280;38381;53.688;10.776;2022-07-15T22:38:22;101450.63;;;15.27;66.66
52469;BME280;38381;53.688;10.776;2022-07-15T22:43:23;101447.16;;;15.07;68.13
52469;BME280;38381;53.688;10.776;2022-07-15T22:48:26;101434.97;;;15.12;68.95
52469;BME280;38381;53.688;10.776;2022-07-15T22:53:27;101430.63;;;15.13;69.96
52469;BME280;38381;53.688;10.776;2022-07-15T22:58:27;101429.75;;;15.26;69.06
52469;BME280;38381;53.688;10.776;2022-07-15T23:03:28;101428.88;;;15.24;70.02
52469;BME280;38381;53.688;10.776;2022-07-15T23:08:28;101414.91;;;15.28;70.35
52469;BME280;38381;53.688;10.776;2022-07-15T23:13:28;101417.44;;;15.56;70.36
52469;BME280;38381;53.688;10.776;2022-07-15T23:18:29;101398.34;;;15.37;70.88
52469;BME280;38381;53.688;10.776;2022-07-15T23:23:29;101391.34;;;15.36;71.61
52469;BME280;38381;53.688;10.776;2022-07-15T23:28:29;101386.16;;;15.25;72.25
52469;BME280;38381;53.688;10.776;2022-07-15T23:33:29;101387.91;;;15.23;73.04
52469;BME280;38381;53.688;10.776;2022-07-15T23:38:30;101378.31;;;15.31;72.68
52469;BME280;38381;53.688;10.776;2022-07-15T23:43:30;101376.50;;;15.44;72.31
52469;BME280;38381;53.688;10.776;2022-07-15T23:48:30;101370.47;;;15.33;72.83
52469;BME280;38381;53.688;10.776;2022-07-15T23:53:31;101361.81;;;15.17;73.99
52469;BME280;38381;53.688;10.776;2022-07-15T23:58:31;101353.94;;;15.26;73.72
